createdAt,value
2023-05-08T00:00:57.537Z,0.00
2023-05-08T00:02:03.850Z,0.00
2023-05-08T00:03:10.176Z,0.00
2023-05-08T00:04:16.249Z,0.00
2023-05-08T00:05:22.450Z,0.00
2023-05-08T00:06:31.825Z,0.00
2023-05-08T00:07:39.088Z,0.00
2023-05-08T00:08:44.629Z,0.00
2023-05-08T00:09:50.078Z,0.00
2023-05-08T00:10:55.616Z,0.00
2023-05-08T00:12:01.441Z,0.00
2023-05-08T00:13:07.344Z,0.00
2023-05-08T00:14:13.634Z,0.00
2023-05-08T00:15:19.403Z,0.00
2023-05-08T00:16:25.496Z,0.00
2023-05-08T00:17:31.797Z,0.00
2023-05-08T00:18:39.448Z,0.00
2023-05-08T00:19:45.409Z,0.00
2023-05-08T00:20:51.129Z,0.00
2023-05-08T00:21:56.883Z,0.00
2023-05-08T00:23:03.570Z,0.00
2023-05-08T00:24:10.135Z,0.00
2023-05-08T00:25:15.770Z,0.00
2023-05-08T00:26:22.326Z,0.00
2023-05-08T00:27:28.719Z,0.00
2023-05-08T00:28:34.481Z,0.00
2023-05-08T00:29:41.835Z,0.00
2023-05-08T00:30:47.529Z,0.00
2023-05-08T00:31:53.426Z,0.00
2023-05-08T00:32:59.607Z,0.00
2023-05-08T00:34:05.875Z,0.00
2023-05-08T00:35:12.093Z,0.00
2023-05-08T00:36:18.002Z,0.00
2023-05-08T00:37:24.766Z,0.00
2023-05-08T00:38:35.176Z,0.00
2023-05-08T00:39:41.228Z,0.00
2023-05-08T00:40:46.462Z,0.00
2023-05-08T00:41:52.146Z,0.00
2023-05-08T00:42:57.706Z,0.00
2023-05-08T00:44:03.009Z,0.00
2023-05-08T00:45:10.885Z,0.00
2023-05-08T00:46:16.857Z,0.00
2023-05-08T00:47:23.105Z,0.00
2023-05-08T00:48:36.992Z,0.00
2023-05-08T00:49:42.759Z,0.00
2023-05-08T00:50:48.000Z,0.00
2023-05-08T00:51:54.748Z,0.00
2023-05-08T00:53:01.759Z,0.00
2023-05-08T00:54:07.850Z,0.00
2023-05-08T00:55:14.135Z,0.00
2023-05-08T00:56:19.831Z,0.00
2023-05-08T00:57:25.859Z,0.00
2023-05-08T00:58:32.074Z,0.00
2023-05-08T00:59:37.890Z,0.00
2023-05-08T01:00:44.848Z,0.00
2023-05-08T01:01:50.947Z,0.00
2023-05-08T01:02:56.788Z,0.00
2023-05-08T01:04:03.625Z,0.00
2023-05-08T01:05:09.606Z,0.00
2023-05-08T01:06:15.531Z,0.00
2023-05-08T01:07:21.785Z,0.00
2023-05-08T01:08:27.550Z,0.00
2023-05-08T01:09:36.114Z,0.00
2023-05-08T01:10:52.593Z,0.00
2023-05-08T01:12:37.783Z,0.00
2023-05-08T01:14:09.180Z,0.00
2023-05-08T01:15:29.527Z,0.00
2023-05-08T01:16:47.574Z,0.00
2023-05-08T01:18:21.352Z,0.00
2023-05-08T01:20:06.948Z,0.00
2023-05-08T01:21:44.223Z,0.00
2023-05-08T01:23:26.651Z,0.00
2023-05-08T01:24:59.336Z,0.00
2023-05-08T01:26:38.933Z,0.00
2023-05-08T01:28:08.989Z,0.00
2023-05-08T01:29:50.358Z,0.00
2023-05-08T01:31:23.092Z,0.00
2023-05-08T01:32:30.851Z,0.00
2023-05-08T01:34:03.606Z,0.00
2023-05-08T01:35:25.544Z,0.00
2023-05-08T01:36:49.660Z,0.00
2023-05-08T01:38:16.323Z,0.00
2023-05-08T01:39:33.486Z,0.00
2023-05-08T01:41:10.151Z,0.00
2023-05-08T01:42:24.426Z,0.00
2023-05-08T01:43:51.703Z,0.00
2023-05-08T01:45:02.632Z,0.00
2023-05-08T01:46:11.284Z,0.00
2023-05-08T01:47:20.221Z,0.00
2023-05-08T01:48:37.285Z,0.00
2023-05-08T01:49:47.294Z,0.00
2023-05-08T01:50:57.074Z,0.00
2023-05-08T01:52:05.007Z,0.00
2023-05-08T01:53:23.115Z,0.00
2023-05-08T01:54:31.256Z,0.00
2023-05-08T01:55:37.817Z,0.00
2023-05-08T01:56:45.861Z,0.00
2023-05-08T01:57:54.817Z,0.00
2023-05-08T01:59:00.780Z,0.00
2023-05-08T02:00:08.663Z,0.00
2023-05-08T02:01:19.377Z,0.00
2023-05-08T02:02:25.930Z,0.00
2023-05-08T02:03:33.502Z,0.00
2023-05-08T02:04:39.835Z,0.00
2023-05-08T02:05:46.469Z,0.00
2023-05-08T02:06:53.036Z,0.00
2023-05-08T02:07:59.303Z,0.00
2023-05-08T02:09:05.742Z,0.00
2023-05-08T02:10:11.754Z,0.00
2023-05-08T02:11:18.093Z,0.00
2023-05-08T02:12:24.693Z,0.00
2023-05-08T02:13:31.444Z,0.00
2023-05-08T02:14:38.139Z,0.00
2023-05-08T02:15:49.306Z,0.00
2023-05-08T02:16:59.014Z,0.00
2023-05-08T02:18:06.153Z,0.00
2023-05-08T02:19:12.962Z,0.00
2023-05-08T02:20:19.944Z,0.00
2023-05-08T02:21:27.947Z,0.00
2023-05-08T02:22:34.722Z,0.00
2023-05-08T02:23:41.832Z,0.00
2023-05-08T02:24:48.535Z,0.00
2023-05-08T02:25:55.340Z,0.00
2023-05-08T02:27:02.576Z,0.00
2023-05-08T02:28:09.116Z,0.00
2023-05-08T02:29:16.336Z,0.00
2023-05-08T02:30:25.700Z,0.00
2023-05-08T02:31:33.107Z,0.00
2023-05-08T02:32:45.378Z,0.00
2023-05-08T02:33:53.204Z,0.00
2023-05-08T02:35:03.433Z,0.00
2023-05-08T02:36:11.969Z,0.00
2023-05-08T02:37:19.657Z,0.00
2023-05-08T02:38:27.361Z,0.00
2023-05-08T02:39:35.583Z,0.00
2023-05-08T02:40:47.337Z,0.00
2023-05-08T02:41:54.126Z,0.00
2023-05-08T02:43:01.844Z,0.00
2023-05-08T02:44:09.193Z,0.00
2023-05-08T02:45:15.732Z,0.00
2023-05-08T02:46:46.657Z,0.00
2023-05-08T02:48:18.494Z,0.00
2023-05-08T02:49:46.252Z,0.00
2023-05-08T02:50:58.069Z,0.00
2023-05-08T02:52:14.958Z,0.00
2023-05-08T02:53:26.419Z,0.00
2023-05-08T02:54:53.274Z,0.00
2023-05-08T02:56:04.689Z,0.00
2023-05-08T02:57:29.593Z,0.00
2023-05-08T02:58:54.844Z,0.00
2023-05-08T03:00:22.990Z,0.00
2023-05-08T03:01:32.871Z,0.00
2023-05-08T03:02:52.369Z,0.00
2023-05-08T03:04:09.544Z,0.00
2023-05-08T03:05:21.402Z,0.00
2023-05-08T03:06:28.639Z,0.00
2023-05-08T03:07:40.114Z,0.00
2023-05-08T03:08:48.064Z,0.00
2023-05-08T03:10:03.005Z,0.00
2023-05-08T03:11:11.832Z,0.00
2023-05-08T03:12:22.058Z,0.00
2023-05-08T03:13:30.102Z,0.00
2023-05-08T03:14:39.883Z,0.00
2023-05-08T03:16:01.609Z,0.00
2023-05-08T03:17:11.135Z,0.00
2023-05-08T03:18:21.793Z,0.00
2023-05-08T03:19:32.180Z,0.00
2023-05-08T03:20:43.785Z,0.00
2023-05-08T03:21:50.399Z,0.00
2023-05-08T03:22:56.652Z,0.00
2023-05-08T03:24:03.682Z,0.00
2023-05-08T03:25:11.336Z,0.00
2023-05-08T03:26:21.658Z,0.00
2023-05-08T03:27:31.555Z,0.00
2023-05-08T03:28:37.856Z,0.00
2023-05-08T03:29:44.316Z,0.00
2023-05-08T03:30:50.555Z,0.00
2023-05-08T03:31:58.256Z,0.00
2023-05-08T03:33:08.590Z,0.00
2023-05-08T03:34:17.076Z,0.00
2023-05-08T03:35:22.917Z,0.00
2023-05-08T03:36:30.008Z,0.00
2023-05-08T03:37:37.373Z,0.00
2023-05-08T03:38:43.945Z,0.00
2023-05-08T03:39:50.098Z,0.00
2023-05-08T03:40:56.617Z,0.00
2023-05-08T03:42:02.397Z,0.00
2023-05-08T03:43:09.489Z,0.00
2023-05-08T03:44:15.731Z,0.00
2023-05-08T03:45:21.751Z,0.00
2023-05-08T03:46:27.945Z,0.00
2023-05-08T03:47:36.708Z,0.00
2023-05-08T03:48:43.020Z,0.00
2023-05-08T03:49:49.961Z,0.00
2023-05-08T03:50:56.084Z,0.00
2023-05-08T03:52:02.447Z,0.00
2023-05-08T03:53:08.089Z,0.00
2023-05-08T03:54:14.173Z,0.00
2023-05-08T03:55:19.897Z,0.00
2023-05-08T03:56:26.149Z,0.00
2023-05-08T03:57:47.166Z,0.00
2023-05-08T03:59:01.974Z,0.00
2023-05-08T04:00:10.800Z,0.00
2023-05-08T04:01:42.936Z,0.00
2023-05-08T04:03:23.631Z,0.00
2023-05-08T04:04:46.460Z,0.00
2023-05-08T04:06:12.615Z,0.00
2023-05-08T04:07:28.890Z,0.00
2023-05-08T04:08:40.383Z,0.00
2023-05-08T04:10:11.844Z,0.00
2023-05-08T04:11:25.434Z,0.00
2023-05-08T04:12:56.717Z,0.00
2023-05-08T04:14:05.149Z,0.00
2023-05-08T04:15:13.720Z,0.00
2023-05-08T04:16:28.057Z,0.00
2023-05-08T04:17:49.049Z,0.00
2023-05-08T04:19:02.868Z,0.00
2023-05-08T04:20:10.055Z,0.00
2023-05-08T04:21:19.984Z,0.00
2023-05-08T04:22:25.970Z,0.00
2023-05-08T04:23:32.166Z,0.00
2023-05-08T04:24:43.253Z,0.00
2023-05-08T04:25:49.702Z,0.00
2023-05-08T04:26:55.459Z,0.00
2023-05-08T04:28:03.259Z,0.00
2023-05-08T04:29:10.446Z,0.00
2023-05-08T04:30:17.012Z,0.00
2023-05-08T04:31:23.359Z,0.00
2023-05-08T04:32:29.621Z,0.00
2023-05-08T04:33:36.416Z,0.00
2023-05-08T04:34:43.329Z,0.00
2023-05-08T04:35:49.442Z,0.00
2023-05-08T04:36:56.230Z,0.00
2023-05-08T04:38:02.289Z,0.00
2023-05-08T04:39:08.945Z,0.00
2023-05-08T04:40:15.555Z,0.00
2023-05-08T04:41:22.152Z,0.00
2023-05-08T04:42:28.382Z,0.00
2023-05-08T04:43:36.437Z,0.00
2023-05-08T04:44:42.661Z,0.00
2023-05-08T04:45:48.537Z,0.00
2023-05-08T04:46:53.848Z,0.00
2023-05-08T04:48:00.365Z,0.00
2023-05-08T04:49:06.304Z,0.00
2023-05-08T04:50:12.616Z,0.00
2023-05-08T04:51:18.582Z,0.00
2023-05-08T04:52:25.166Z,0.00
2023-05-08T04:53:31.357Z,0.00
2023-05-08T04:54:37.666Z,0.00
2023-05-08T04:55:43.881Z,0.00
2023-05-08T04:56:49.703Z,0.00
2023-05-08T04:57:55.351Z,0.00
2023-05-08T04:59:01.256Z,0.00
2023-05-08T05:00:08.202Z,0.00
2023-05-08T05:01:16.453Z,0.00
2023-05-08T05:02:22.322Z,0.00
2023-05-08T05:03:28.000Z,0.00
2023-05-08T05:04:34.340Z,0.00
2023-05-08T05:05:40.358Z,0.00
2023-05-08T05:06:46.603Z,0.00
2023-05-08T05:07:52.150Z,0.00
2023-05-08T05:08:58.699Z,0.00
2023-05-08T05:10:04.864Z,0.00
2023-05-08T05:11:11.541Z,0.00
2023-05-08T05:12:17.642Z,0.00
2023-05-08T05:13:24.136Z,0.00
2023-05-08T05:14:31.204Z,0.00
2023-05-08T05:15:37.108Z,0.00
2023-05-08T05:16:43.071Z,0.00
2023-05-08T05:17:49.147Z,0.00
2023-05-08T05:18:55.168Z,0.00
2023-05-08T05:20:01.775Z,0.00
2023-05-08T05:21:07.985Z,0.00
2023-05-08T05:22:14.603Z,0.00
2023-05-08T05:23:20.273Z,0.00
2023-05-08T05:24:26.042Z,0.00
2023-05-08T05:25:31.944Z,0.00
2023-05-08T05:26:38.744Z,0.00
2023-05-08T05:27:45.087Z,0.00
2023-05-08T05:28:50.564Z,0.00
2023-05-08T05:29:56.137Z,0.00
2023-05-08T05:31:02.405Z,0.00
2023-05-08T05:32:08.180Z,0.00
2023-05-08T05:33:13.423Z,0.00
2023-05-08T05:34:18.751Z,0.00
2023-05-08T05:35:25.767Z,0.00
2023-05-08T05:36:31.950Z,0.00
2023-05-08T05:37:38.604Z,0.00
2023-05-08T05:38:44.985Z,0.00
2023-05-08T05:39:50.518Z,0.00
2023-05-08T05:40:56.559Z,0.00
2023-05-08T05:42:03.087Z,0.00
2023-05-08T05:43:08.552Z,0.00
2023-05-08T05:44:14.913Z,0.00
2023-05-08T05:45:20.582Z,0.00
2023-05-08T05:46:32.913Z,0.00
2023-05-08T05:47:40.609Z,0.00
2023-05-08T05:48:46.830Z,0.00
2023-05-08T05:49:52.304Z,0.00
2023-05-08T05:50:58.492Z,0.00
2023-05-08T05:52:04.216Z,0.00
2023-05-08T05:53:11.090Z,0.00
2023-05-08T05:54:16.909Z,0.00
2023-05-08T05:55:23.001Z,0.00
2023-05-08T05:56:28.851Z,0.00
2023-05-08T05:57:34.870Z,0.00
2023-05-08T05:58:45.372Z,0.00
2023-05-08T05:59:51.569Z,0.00
2023-05-08T06:01:01.683Z,0.00
2023-05-08T06:02:11.188Z,0.00
2023-05-08T06:03:17.233Z,0.00
2023-05-08T06:04:23.451Z,0.00
2023-05-08T06:05:30.166Z,0.00
2023-05-08T06:06:36.986Z,0.00
2023-05-08T06:07:43.526Z,0.00
2023-05-08T06:08:49.180Z,0.00
2023-05-08T06:09:54.926Z,0.00
2023-05-08T06:11:01.070Z,0.00
2023-05-08T06:12:07.223Z,0.00
2023-05-08T06:13:13.432Z,0.00
2023-05-08T06:14:19.123Z,0.00
2023-05-08T06:15:25.596Z,0.00
2023-05-08T06:16:32.809Z,0.00
2023-05-08T06:17:39.338Z,0.00
2023-05-08T06:18:45.580Z,0.00
2023-05-08T06:19:54.992Z,0.00
2023-05-08T06:21:01.597Z,0.00
2023-05-08T06:22:07.827Z,0.00
2023-05-08T06:23:14.080Z,0.00
2023-05-08T06:24:20.059Z,0.00
2023-05-08T06:25:26.197Z,0.00
2023-05-08T06:26:32.486Z,0.00
2023-05-08T06:27:37.855Z,0.00
2023-05-08T06:28:43.704Z,0.00
2023-05-08T06:29:52.273Z,0.00
2023-05-08T06:30:58.181Z,0.00
2023-05-08T06:32:03.988Z,0.00
2023-05-08T06:33:11.665Z,0.00
2023-05-08T06:34:17.000Z,0.00
2023-05-08T06:35:22.122Z,0.00
2023-05-08T06:36:28.391Z,0.00
2023-05-08T06:37:34.304Z,0.00
2023-05-08T06:38:40.598Z,0.00
2023-05-08T06:39:47.765Z,0.00
2023-05-08T06:40:55.863Z,0.00
2023-05-08T06:42:02.012Z,0.00
2023-05-08T06:43:08.582Z,0.00
2023-05-08T06:44:14.408Z,0.00
2023-05-08T06:45:20.255Z,0.00
2023-05-08T06:46:26.748Z,0.00
2023-05-08T06:47:33.125Z,0.00
2023-05-08T06:48:39.331Z,0.00
2023-05-08T06:49:45.785Z,0.00
2023-05-08T06:50:53.069Z,0.00
2023-05-08T06:51:59.220Z,0.00
2023-05-08T06:53:05.119Z,0.00
2023-05-08T06:54:11.761Z,0.00
2023-05-08T06:55:18.015Z,0.00
2023-05-08T06:56:25.139Z,0.00
2023-05-08T06:57:30.805Z,0.00
2023-05-08T06:58:37.265Z,0.00
2023-05-08T06:59:43.132Z,0.00
2023-05-08T07:00:49.057Z,0.00
2023-05-08T07:01:55.088Z,0.00
2023-05-08T07:03:01.085Z,0.00
2023-05-08T07:04:07.245Z,0.00
2023-05-08T07:05:13.695Z,0.00
2023-05-08T07:06:19.814Z,0.00
2023-05-08T07:07:26.565Z,0.00
2023-05-08T07:08:33.023Z,0.00
2023-05-08T07:09:38.968Z,0.00
2023-05-08T07:10:44.313Z,0.00
2023-05-08T07:11:49.773Z,0.00
2023-05-08T07:12:55.162Z,0.00
2023-05-08T07:14:00.896Z,0.00
2023-05-08T07:15:17.685Z,0.00
2023-05-08T07:16:31.788Z,0.00
2023-05-08T07:17:38.516Z,0.00
2023-05-08T07:18:44.962Z,0.00
2023-05-08T07:19:54.054Z,0.00
2023-05-08T07:20:59.951Z,0.00
2023-05-08T07:22:06.562Z,0.00
2023-05-08T07:23:13.121Z,0.00
2023-05-08T07:24:18.537Z,0.00
2023-05-08T07:25:24.801Z,0.00
2023-05-08T07:26:31.073Z,0.00
2023-05-08T07:27:37.593Z,0.00
2023-05-08T07:28:44.049Z,0.00
2023-05-08T07:29:49.756Z,0.00
2023-05-08T07:30:55.531Z,0.00
2023-05-08T07:32:01.998Z,0.00
2023-05-08T07:33:07.849Z,0.00
2023-05-08T07:34:13.697Z,0.00
2023-05-08T07:35:20.365Z,0.00
2023-05-08T07:36:26.061Z,0.00
2023-05-08T07:37:31.918Z,0.00
2023-05-08T07:38:37.834Z,0.00
2023-05-08T07:39:43.985Z,0.00
2023-05-08T07:40:49.798Z,0.00
2023-05-08T07:41:55.358Z,0.00
2023-05-08T07:43:01.454Z,0.00
2023-05-08T07:44:07.042Z,0.00
2023-05-08T07:45:13.834Z,0.00
2023-05-08T07:46:20.296Z,0.00
2023-05-08T07:47:26.006Z,0.00
2023-05-08T07:48:32.535Z,0.00
2023-05-08T07:49:39.019Z,0.00
2023-05-08T07:50:45.357Z,0.00
2023-05-08T07:51:50.781Z,0.00
2023-05-08T07:52:56.414Z,0.00
2023-05-08T07:54:02.334Z,0.00
2023-05-08T07:55:08.357Z,0.00
2023-05-08T07:56:13.883Z,0.00
2023-05-08T07:57:19.686Z,0.00
2023-05-08T07:58:25.363Z,0.00
2023-05-08T07:59:30.824Z,0.00
2023-05-08T08:00:37.013Z,0.00
2023-05-08T08:01:47.617Z,0.00
2023-05-08T08:02:53.497Z,0.00
2023-05-08T08:03:59.847Z,0.00
2023-05-08T08:05:06.577Z,0.00
2023-05-08T08:06:12.632Z,0.00
2023-05-08T08:07:19.091Z,0.00
2023-05-08T08:08:25.150Z,0.00
2023-05-08T08:09:30.361Z,0.00
2023-05-08T08:10:36.764Z,0.00
2023-05-08T08:11:42.272Z,0.00
2023-05-08T08:12:47.682Z,0.00
2023-05-08T08:13:53.157Z,0.00
2023-05-08T08:14:59.156Z,0.00
2023-05-08T08:16:07.495Z,0.00
2023-05-08T08:17:13.337Z,0.00
2023-05-08T08:18:19.419Z,0.00
2023-05-08T08:19:25.128Z,0.00
2023-05-08T08:20:32.013Z,0.00
2023-05-08T08:21:43.166Z,0.00
2023-05-08T08:22:49.197Z,0.00
2023-05-08T08:23:54.916Z,0.00
2023-05-08T08:25:00.757Z,0.00
2023-05-08T08:26:06.541Z,0.00
2023-05-08T08:27:12.085Z,0.00
2023-05-08T08:28:18.629Z,0.00
2023-05-08T08:29:24.594Z,0.00
2023-05-08T08:30:30.518Z,0.00
2023-05-08T08:31:36.834Z,0.00
2023-05-08T08:32:42.591Z,0.00
2023-05-08T08:33:48.165Z,0.00
2023-05-08T08:34:53.597Z,0.00
2023-05-08T08:35:59.448Z,0.00
2023-05-08T08:37:07.781Z,0.00
2023-05-08T08:38:17.394Z,0.00
2023-05-08T08:39:23.390Z,0.00
2023-05-08T08:40:29.619Z,0.00
2023-05-08T08:41:35.647Z,0.00
2023-05-08T08:42:41.440Z,0.00
2023-05-08T08:43:47.987Z,0.00
2023-05-08T08:44:54.569Z,0.00
2023-05-08T08:46:01.573Z,0.00
2023-05-08T08:47:07.788Z,0.00
2023-05-08T08:48:13.983Z,0.00
2023-05-08T08:49:21.050Z,0.00
2023-05-08T08:50:27.778Z,0.00
2023-05-08T08:51:42.970Z,0.00
2023-05-08T08:53:14.649Z,0.00
2023-05-08T08:54:28.377Z,0.00
2023-05-08T08:55:33.842Z,0.00
2023-05-08T08:56:40.874Z,0.00
2023-05-08T08:58:01.841Z,0.00
2023-05-08T08:59:08.530Z,0.00
2023-05-08T09:00:15.496Z,0.00
2023-05-08T09:01:21.457Z,0.00
2023-05-08T09:02:28.071Z,0.00
2023-05-08T09:03:34.692Z,0.00
2023-05-08T09:04:41.103Z,0.00
2023-05-08T09:05:49.707Z,0.00
2023-05-08T09:06:55.812Z,0.00
2023-05-08T09:08:01.317Z,0.00
2023-05-08T09:09:07.362Z,0.00
2023-05-08T09:10:15.943Z,0.00
2023-05-08T09:11:21.673Z,0.00
2023-05-08T09:12:27.568Z,0.00
2023-05-08T09:13:33.377Z,0.00
2023-05-08T09:14:39.891Z,0.00
2023-05-08T09:15:46.106Z,0.00
2023-05-08T09:16:52.000Z,0.00
2023-05-08T09:17:58.478Z,0.00
2023-05-08T09:19:04.759Z,0.00
2023-05-08T09:20:12.019Z,0.00
2023-05-08T09:21:18.511Z,0.00
2023-05-08T09:22:24.934Z,0.00
2023-05-08T09:23:31.306Z,0.00
2023-05-08T09:25:01.193Z,0.00
2023-05-08T09:26:06.970Z,0.00
2023-05-08T09:27:23.252Z,0.00
2023-05-08T09:28:28.878Z,0.00
2023-05-08T09:29:34.860Z,0.00
2023-05-08T09:30:51.170Z,0.00
2023-05-08T09:31:56.508Z,0.00
2023-05-08T09:33:03.988Z,0.00
2023-05-08T09:34:11.422Z,0.00
2023-05-08T09:35:17.974Z,0.00
2023-05-08T09:36:29.190Z,0.00
2023-05-08T09:37:37.991Z,0.00
2023-05-08T09:38:44.758Z,0.00
2023-05-08T09:39:50.592Z,0.00
2023-05-08T09:41:15.841Z,0.00
2023-05-08T09:42:21.517Z,0.00
2023-05-08T09:43:27.565Z,0.00
2023-05-08T09:44:55.743Z,0.00
2023-05-08T09:46:24.683Z,0.00
2023-05-08T09:47:30.088Z,0.00
2023-05-08T09:48:39.265Z,0.00
2023-05-08T09:50:05.710Z,0.00
2023-05-08T09:51:11.487Z,0.00
2023-05-08T09:52:23.092Z,0.00
2023-05-08T09:53:34.684Z,0.00
2023-05-08T09:54:40.680Z,0.00
2023-05-08T09:55:49.207Z,0.00
2023-05-08T09:56:54.492Z,0.00
2023-05-08T09:58:00.653Z,0.00
2023-05-08T09:59:27.469Z,0.00
2023-05-08T10:00:33.488Z,0.00
2023-05-08T10:01:40.118Z,0.00
2023-05-08T10:02:59.640Z,0.00
2023-05-08T10:04:06.532Z,0.00
2023-05-08T10:05:32.576Z,0.00
2023-05-08T10:06:42.120Z,0.00
2023-05-08T10:07:47.276Z,0.00
2023-05-08T10:09:15.711Z,0.00
2023-05-08T10:10:28.351Z,0.00
2023-05-08T10:11:33.896Z,0.00
2023-05-08T10:12:39.833Z,0.00
2023-05-08T10:13:46.575Z,0.00
2023-05-08T10:14:52.353Z,0.00
2023-05-08T10:15:58.416Z,0.00
2023-05-08T10:17:04.370Z,0.00
2023-05-08T10:18:11.646Z,0.00
2023-05-08T10:19:19.499Z,0.00
2023-05-08T10:20:27.308Z,0.00
2023-05-08T10:21:34.041Z,0.00
2023-05-08T10:22:40.724Z,0.00
2023-05-08T10:23:48.349Z,0.00
2023-05-08T10:24:57.157Z,0.00
2023-05-08T10:26:09.413Z,0.00
2023-05-08T10:27:20.421Z,0.00
2023-05-08T10:29:05.775Z,0.00
2023-05-08T10:30:11.753Z,0.00
2023-05-08T10:31:19.186Z,0.00
2023-05-08T10:32:25.362Z,0.00
2023-05-08T10:33:32.424Z,0.00
2023-05-08T10:34:41.107Z,0.00
2023-05-08T10:35:47.332Z,0.00
2023-05-08T10:36:54.200Z,0.00
2023-05-08T10:38:00.506Z,0.00
2023-05-08T10:39:06.604Z,0.00
2023-05-08T10:40:12.796Z,0.00
2023-05-08T10:41:19.852Z,0.00
2023-05-08T10:42:26.442Z,0.00
2023-05-08T10:43:32.663Z,0.00
2023-05-08T10:44:38.720Z,0.00
2023-05-08T10:45:44.279Z,0.00
2023-05-08T10:47:10.243Z,0.00
2023-05-08T10:48:36.934Z,0.00
2023-05-08T10:50:12.199Z,0.00
2023-05-08T10:51:23.286Z,0.00
2023-05-08T10:52:54.907Z,0.00
2023-05-08T10:54:10.308Z,0.00
2023-05-08T10:55:40.271Z,0.00
2023-05-08T10:56:45.890Z,0.00
2023-05-08T10:58:11.949Z,0.00
2023-05-08T10:59:21.452Z,0.00
2023-05-08T11:00:27.702Z,0.00
2023-05-08T11:01:34.277Z,0.00
2023-05-08T11:02:40.478Z,0.00
2023-05-08T11:03:47.702Z,0.00
2023-05-08T11:04:53.023Z,0.00
2023-05-08T11:05:59.549Z,0.00
2023-05-08T11:07:05.384Z,0.00
2023-05-08T11:08:16.991Z,0.00
2023-05-08T11:09:47.467Z,0.00
2023-05-08T11:11:06.764Z,0.00
2023-05-08T11:12:28.512Z,0.00
2023-05-08T11:13:37.323Z,0.00
2023-05-08T11:14:43.683Z,0.00
2023-05-08T11:15:52.099Z,0.00
2023-05-08T11:17:06.538Z,0.00
2023-05-08T11:18:12.184Z,0.00
2023-05-08T11:19:19.607Z,0.00
2023-05-08T11:20:25.356Z,0.00
2023-05-08T11:21:31.437Z,0.00
2023-05-08T11:22:38.946Z,0.00
2023-05-08T11:23:44.633Z,0.00
2023-05-08T11:24:56.229Z,0.00
2023-05-08T11:26:07.408Z,0.00
2023-05-08T11:27:13.544Z,0.00
2023-05-08T11:28:19.458Z,0.00
2023-05-08T11:29:24.986Z,0.00
2023-05-08T11:30:37.573Z,0.00
2023-05-08T11:31:53.076Z,0.00
2023-05-08T11:33:15.120Z,0.00
2023-05-08T11:34:47.918Z,0.00
2023-05-08T11:35:56.859Z,0.00
2023-05-08T11:37:02.985Z,0.00
2023-05-08T11:38:20.289Z,0.00
2023-05-08T11:39:26.961Z,0.00
2023-05-08T11:41:01.356Z,0.00
2023-05-08T11:42:35.347Z,0.00
2023-05-08T11:44:20.862Z,0.00
2023-05-08T11:45:26.552Z,0.00
2023-05-08T11:46:52.883Z,0.00
2023-05-08T11:48:02.434Z,0.03
2023-05-08T11:49:18.991Z,0.04
2023-05-08T11:50:27.933Z,0.03
2023-05-08T11:51:34.347Z,0.03
2023-05-08T11:52:41.921Z,0.01
2023-05-08T11:53:48.191Z,0.05
2023-05-08T11:54:53.322Z,0.12
2023-05-08T11:55:59.211Z,0.04
2023-05-08T11:57:04.830Z,0.16
2023-05-08T11:58:14.268Z,0.12
2023-05-08T11:59:20.504Z,0.12
2023-05-08T12:00:26.033Z,0.28
2023-05-08T12:01:32.971Z,0.22
2023-05-08T12:02:42.963Z,0.20
2023-05-08T12:03:48.447Z,0.25
2023-05-08T12:04:55.083Z,0.33
2023-05-08T12:06:01.506Z,0.44
2023-05-08T12:07:07.470Z,0.37
2023-05-08T12:08:13.891Z,0.31
2023-05-08T12:09:21.063Z,0.48
2023-05-08T12:10:27.313Z,0.48
2023-05-08T12:11:33.545Z,0.57
2023-05-08T12:12:40.350Z,0.54
2023-05-08T12:13:52.164Z,0.67
2023-05-08T12:14:57.987Z,0.62
2023-05-08T12:16:03.679Z,0.75
2023-05-08T12:17:09.230Z,0.78
2023-05-08T12:18:15.802Z,0.70
2023-05-08T12:19:21.674Z,0.73
2023-05-08T12:20:27.345Z,0.84
2023-05-08T12:21:33.273Z,0.78
2023-05-08T12:22:41.386Z,0.72
2023-05-08T12:23:47.140Z,0.75
2023-05-08T12:24:52.434Z,0.93
2023-05-08T12:26:01.351Z,0.93
2023-05-08T12:27:06.801Z,0.83
2023-05-08T12:28:11.932Z,0.91
2023-05-08T12:29:20.340Z,0.85
2023-05-08T12:30:25.642Z,1.00
2023-05-08T12:31:31.339Z,0.89
2023-05-08T12:32:39.695Z,0.84
2023-05-08T12:33:45.358Z,0.88
2023-05-08T12:34:51.248Z,0.93
2023-05-08T12:35:57.841Z,0.97
2023-05-08T12:37:05.014Z,0.97
2023-05-08T12:38:12.875Z,0.97
2023-05-08T12:39:19.782Z,1.01
2023-05-08T12:40:32.028Z,0.98
2023-05-08T12:41:44.249Z,1.00
2023-05-08T12:42:50.232Z,1.07
2023-05-08T12:43:57.510Z,1.01
2023-05-08T12:45:03.535Z,1.08
2023-05-08T12:46:14.979Z,0.94
2023-05-08T12:47:21.480Z,1.12
2023-05-08T12:48:29.489Z,1.13
2023-05-08T12:49:36.009Z,1.13
2023-05-08T12:50:43.463Z,1.23
2023-05-08T12:51:48.659Z,1.20
2023-05-08T12:52:54.456Z,1.14
2023-05-08T12:54:00.880Z,1.12
2023-05-08T12:55:06.517Z,1.33
2023-05-08T12:56:12.411Z,1.23
2023-05-08T12:57:19.297Z,1.30
2023-05-08T12:58:32.330Z,1.13
2023-05-08T12:59:37.932Z,1.24
2023-05-08T13:00:45.614Z,1.33
2023-05-08T13:01:54.331Z,1.43
2023-05-08T13:02:59.444Z,1.26
2023-05-08T13:04:08.589Z,1.51
2023-05-08T13:05:14.173Z,1.35
2023-05-08T13:06:23.139Z,1.51
2023-05-08T13:07:33.609Z,1.43
2023-05-08T13:08:43.019Z,1.47
2023-05-08T13:10:05.511Z,1.48
2023-05-08T13:11:10.947Z,1.44
2023-05-08T13:12:16.583Z,1.50
2023-05-08T13:13:24.650Z,1.36
2023-05-08T13:14:30.986Z,1.44
2023-05-08T13:15:36.880Z,1.47
2023-05-08T13:16:46.425Z,1.64
2023-05-08T13:17:52.129Z,1.57
2023-05-08T13:18:57.693Z,1.58
2023-05-08T13:20:06.175Z,1.53
2023-05-08T13:21:12.006Z,1.72
2023-05-08T13:22:17.830Z,1.58
2023-05-08T13:23:24.085Z,1.49
2023-05-08T13:24:30.427Z,1.65
2023-05-08T13:25:37.512Z,1.66
2023-05-08T13:26:43.523Z,1.75
2023-05-08T13:27:49.630Z,1.76
2023-05-08T13:28:56.673Z,1.73
2023-05-08T13:30:02.275Z,1.68
2023-05-08T13:31:08.735Z,1.55
2023-05-08T13:32:14.963Z,1.52
2023-05-08T13:33:21.277Z,1.75
2023-05-08T13:34:27.226Z,1.82
2023-05-08T13:35:33.382Z,1.85
2023-05-08T13:36:39.365Z,1.81
2023-05-08T13:37:45.847Z,1.83
2023-05-08T13:38:58.036Z,1.78
2023-05-08T13:40:05.349Z,1.75
2023-05-08T13:41:12.430Z,1.79
2023-05-08T13:42:17.863Z,1.80
2023-05-08T13:43:23.393Z,1.89
2023-05-08T13:44:29.734Z,1.71
2023-05-08T13:45:36.330Z,1.71
2023-05-08T13:46:42.589Z,1.82
2023-05-08T13:47:48.909Z,1.79
2023-05-08T13:48:54.877Z,1.74
2023-05-08T13:50:00.406Z,1.81
2023-05-08T13:51:06.804Z,1.95
2023-05-08T13:52:12.790Z,1.97
2023-05-08T13:53:18.753Z,1.97
2023-05-08T13:54:24.413Z,1.89
2023-05-08T13:55:30.277Z,1.85
2023-05-08T13:56:35.901Z,1.91
2023-05-08T13:57:41.523Z,1.99
2023-05-08T13:58:46.657Z,1.91
2023-05-08T13:59:51.792Z,1.89
2023-05-08T14:00:57.228Z,1.93
2023-05-08T14:02:02.992Z,1.99
2023-05-08T14:03:09.033Z,1.86
2023-05-08T14:04:15.006Z,1.99
2023-05-08T14:05:20.792Z,1.98
2023-05-08T14:06:27.518Z,1.93
2023-05-08T14:07:33.815Z,1.95
2023-05-08T14:08:45.148Z,2.13
2023-05-08T14:09:52.151Z,1.93
2023-05-08T14:10:58.360Z,1.88
2023-05-08T14:12:04.025Z,2.05
2023-05-08T14:13:10.262Z,2.17
2023-05-08T14:14:15.935Z,2.03
2023-05-08T14:15:23.462Z,1.95
2023-05-08T14:16:33.476Z,1.94
2023-05-08T14:17:40.210Z,1.99
2023-05-08T14:18:46.366Z,1.93
2023-05-08T14:19:51.718Z,1.96
2023-05-08T14:20:57.787Z,1.98
2023-05-08T14:22:03.482Z,2.02
2023-05-08T14:23:09.066Z,1.99
2023-05-08T14:24:15.082Z,2.14
2023-05-08T14:25:21.450Z,1.85
2023-05-08T14:26:27.863Z,1.98
2023-05-08T14:27:33.727Z,2.04
2023-05-08T14:28:39.007Z,2.08
2023-05-08T14:29:44.913Z,2.00
2023-05-08T14:30:50.394Z,2.06
2023-05-08T14:31:55.997Z,2.16
2023-05-08T14:33:01.942Z,2.26
2023-05-08T14:34:10.576Z,2.19
2023-05-08T14:35:16.316Z,2.11
2023-05-08T14:36:22.333Z,2.14
2023-05-08T14:37:27.993Z,2.00
2023-05-08T14:38:33.626Z,2.08
2023-05-08T14:39:39.568Z,2.05
2023-05-08T14:40:45.422Z,2.13
2023-05-08T14:42:14.418Z,2.27
2023-05-08T14:43:16.342Z,2.15
2023-05-08T14:44:21.803Z,2.21
2023-05-08T14:45:27.013Z,2.26
2023-05-08T14:46:32.675Z,2.16
2023-05-08T14:47:39.601Z,2.24
2023-05-08T14:48:45.818Z,2.13
2023-05-08T14:49:51.234Z,2.10
2023-05-08T14:50:58.486Z,2.21
2023-05-08T14:52:04.044Z,2.26
2023-05-08T14:53:10.212Z,2.29
2023-05-08T14:54:16.553Z,2.21
2023-05-08T14:55:23.221Z,2.21
2023-05-08T14:56:34.591Z,2.25
2023-05-08T14:57:47.211Z,2.15
2023-05-08T14:58:52.531Z,2.14
2023-05-08T14:59:58.148Z,2.14
2023-05-08T15:01:04.359Z,2.21
2023-05-08T15:02:10.300Z,2.23
2023-05-08T15:03:16.679Z,2.19
2023-05-08T15:04:22.857Z,2.15
2023-05-08T15:05:28.811Z,2.07
2023-05-08T15:06:36.888Z,2.06
2023-05-08T15:07:42.487Z,2.09
2023-05-08T15:08:49.126Z,2.29
2023-05-08T15:09:54.334Z,2.19
2023-05-08T15:11:00.584Z,2.22
2023-05-08T15:12:06.846Z,2.22
2023-05-08T15:13:12.960Z,2.24
2023-05-08T15:14:19.574Z,2.30
2023-05-08T15:15:25.833Z,2.27
2023-05-08T15:16:32.470Z,2.27
2023-05-08T15:17:38.442Z,2.27